sensor_id;sensor_type;location;lat;lon;timestamp;P1;durP1;ratioP1;P2;durP2;ratioP2
36009;SDS011;22076;52.182;5.404;2022-12-07T00:01:29;10.93;;;5.15;;
36009;SDS011;22076;52.182;5.404;2022-12-07T00:03:58;10.50;;;5.75;;
36009;SDS011;22076;52.182;5.404;2022-12-07T00:08:56;12.68;;;5.45;;
36009;SDS011;22076;52.182;5.404;2022-12-07T00:11:22;8.88;;;4.03;;
36009;SDS011;22076;52.182;5.404;2022-12-07T00:13:50;12.93;;;5.43;;
36009;SDS011;22076;52.182;5.404;2022-12-07T00:16:18;8.90;;;4.82;;
36009;SDS011;22076;52.182;5.404;2022-12-07T00:18:45;9.65;;;5.03;;
36009;SDS011;22076;52.182;5.404;2022-12-07T00:21:14;9.85;;;4.32;;
36009;SDS011;22076;52.182;5.404;2022-12-07T00:23:42;9.00;;;5.15;;
36009;SDS011;22076;52.182;5.404;2022-12-07T00:26:10;13.95;;;4.65;;
36009;SDS011;22076;52.182;5.404;2022-12-07T00:28:38;7.15;;;4.20;;
36009;SDS011;22076;52.182;5.404;2022-12-07T00:31:05;11.95;;;5.07;;
36009;SDS011;22076;52.182;5.404;2022-12-07T00:33:34;10.80;;;4.63;;
36009;SDS011;22076;52.182;5.404;2022-12-07T00:36:01;13.15;;;5.35;;
36009;SDS011;22076;52.182;5.404;2022-12-07T00:38:31;11.07;;;4.53;;
36009;SDS011;22076;52.182;5.404;2022-12-07T00:40:59;11.65;;;5.30;;
36009;SDS011;22076;52.182;5.404;2022-12-07T00:43:28;10.32;;;5.30;;
36009;SDS011;22076;52.182;5.404;2022-12-07T00:45:55;10.88;;;4.72;;
36009;SDS011;22076;52.182;5.404;2022-12-07T00:48:22;12.00;;;5.47;;
36009;SDS011;22076;52.182;5.404;2022-12-07T00:50:48;9.55;;;4.45;;
36009;SDS011;22076;52.182;5.404;2022-12-07T00:53:15;11.32;;;5.03;;
36009;SDS011;22076;52.182;5.404;2022-12-07T00:55:44;12.07;;;6.03;;
36009;SDS011;22076;52.182;5.404;2022-12-07T00:58:10;15.07;;;5.45;;
36009;SDS011;22076;52.182;5.404;2022-12-07T01:00:39;21.85;;;8.35;;
36009;SDS011;22076;52.182;5.404;2022-12-07T01:03:06;14.30;;;6.40;;
36009;SDS011;22076;52.182;5.404;2022-12-07T01:05:35;30.20;;;8.43;;
36009;SDS011;22076;52.182;5.404;2022-12-07T01:08:01;18.35;;;6.15;;
36009;SDS011;22076;52.182;5.404;2022-12-07T01:10:28;18.10;;;6.20;;
36009;SDS011;22076;52.182;5.404;2022-12-07T01:12:57;11.48;;;4.50;;
36009;SDS011;22076;52.182;5.404;2022-12-07T01:15:24;12.45;;;4.65;;
36009;SDS011;22076;52.182;5.404;2022-12-07T01:17:51;18.20;;;5.50;;
36009;SDS011;22076;52.182;5.404;2022-12-07T01:20:19;13.25;;;4.70;;
36009;SDS011;22076;52.182;5.404;2022-12-07T01:22:46;17.45;;;5.47;;
36009;SDS011;22076;52.182;5.404;2022-12-07T01:25:12;21.70;;;6.53;;
36009;SDS011;22076;52.182;5.404;2022-12-07T01:27:39;20.00;;;5.72;;
36009;SDS011;22076;52.182;5.404;2022-12-07T01:30:07;15.07;;;5.30;;
36009;SDS011;22076;52.182;5.404;2022-12-07T01:32:36;18.05;;;4.60;;
36009;SDS011;22076;52.182;5.404;2022-12-07T01:35:02;16.65;;;3.67;;
36009;SDS011;22076;52.182;5.404;2022-12-07T01:37:33;13.02;;;4.60;;
36009;SDS011;22076;52.182;5.404;2022-12-07T01:40:00;17.63;;;5.95;;
36009;SDS011;22076;52.182;5.404;2022-12-07T01:42:27;17.20;;;5.82;;
36009;SDS011;22076;52.182;5.404;2022-12-07T01:48:11;12.18;;;4.05;;
36009;SDS011;22076;52.182;5.404;2022-12-07T01:50:39;19.25;;;5.45;;
36009;SDS011;22076;52.182;5.404;2022-12-07T01:53:06;14.82;;;5.22;;
36009;SDS011;22076;52.182;5.404;2022-12-07T01:55:35;23.67;;;5.00;;
36009;SDS011;22076;52.182;5.404;2022-12-07T01:58:04;15.65;;;4.57;;
36009;SDS011;22076;52.182;5.404;2022-12-07T02:00:31;11.30;;;3.72;;
36009;SDS011;22076;52.182;5.404;2022-12-07T02:02:59;11.98;;;3.08;;
36009;SDS011;22076;52.182;5.404;2022-12-07T02:05:31;10.73;;;2.92;;
36009;SDS011;22076;52.182;5.404;2022-12-07T02:07:59;4.90;;;2.40;;
36009;SDS011;22076;52.182;5.404;2022-12-07T02:10:26;6.75;;;2.60;;
36009;SDS011;22076;52.182;5.404;2022-12-07T02:12:54;14.48;;;2.70;;
36009;SDS011;22076;52.182;5.404;2022-12-07T02:15:23;10.07;;;2.72;;
36009;SDS011;22076;52.182;5.404;2022-12-07T02:17:55;10.65;;;2.60;;
36009;SDS011;22076;52.182;5.404;2022-12-07T02:20:28;10.55;;;2.50;;
36009;SDS011;22076;52.182;5.404;2022-12-07T02:26:06;7.20;;;2.53;;
36009;SDS011;22076;52.182;5.404;2022-12-07T02:29:11;8.20;;;2.58;;
36009;SDS011;22076;52.182;5.404;2022-12-07T02:31:42;12.27;;;3.13;;
36009;SDS011;22076;52.182;5.404;2022-12-07T02:34:13;11.27;;;2.50;;
36009;SDS011;22076;52.182;5.404;2022-12-07T02:36:46;7.15;;;2.58;;
36009;SDS011;22076;52.182;5.404;2022-12-07T02:39:18;8.55;;;2.42;;
36009;SDS011;22076;52.182;5.404;2022-12-07T02:41:49;7.43;;;3.08;;
36009;SDS011;22076;52.182;5.404;2022-12-07T02:44:20;8.00;;;2.35;;
36009;SDS011;22076;52.182;5.404;2022-12-07T02:46:50;5.53;;;2.25;;
36009;SDS011;22076;52.182;5.404;2022-12-07T02:49:35;13.50;;;3.30;;
36009;SDS011;22076;52.182;5.404;2022-12-07T02:52:05;6.20;;;2.03;;
36009;SDS011;22076;52.182;5.404;2022-12-07T02:54:31;4.28;;;2.08;;
36009;SDS011;22076;52.182;5.404;2022-12-07T02:57:00;4.85;;;2.05;;
36009;SDS011;22076;52.182;5.404;2022-12-07T02:59:36;10.20;;;2.40;;
36009;SDS011;22076;52.182;5.404;2022-12-07T03:02:10;5.95;;;2.45;;
36009;SDS011;22076;52.182;5.404;2022-12-07T03:04:45;6.38;;;2.35;;
36009;SDS011;22076;52.182;5.404;2022-12-07T03:07:18;6.43;;;2.55;;
36009;SDS011;22076;52.182;5.404;2022-12-07T03:09:51;7.25;;;2.55;;
36009;SDS011;22076;52.182;5.404;2022-12-07T03:12:21;15.65;;;3.20;;
36009;SDS011;22076;52.182;5.404;2022-12-07T03:14:55;6.35;;;1.83;;
36009;SDS011;22076;52.182;5.404;2022-12-07T03:17:26;5.50;;;2.47;;
36009;SDS011;22076;52.182;5.404;2022-12-07T03:19:55;12.57;;;2.45;;
36009;SDS011;22076;52.182;5.404;2022-12-07T03:22:23;6.80;;;2.50;;
36009;SDS011;22076;52.182;5.404;2022-12-07T03:24:55;4.28;;;2.13;;
36009;SDS011;22076;52.182;5.404;2022-12-07T03:27:23;6.72;;;2.28;;
36009;SDS011;22076;52.182;5.404;2022-12-07T03:29:54;8.95;;;2.20;;
36009;SDS011;22076;52.182;5.404;2022-12-07T03:32:25;7.47;;;2.47;;
36009;SDS011;22076;52.182;5.404;2022-12-07T03:34:56;6.32;;;2.63;;
36009;SDS011;22076;52.182;5.404;2022-12-07T03:37:26;8.95;;;1.80;;
36009;SDS011;22076;52.182;5.404;2022-12-07T03:39:57;5.07;;;1.58;;
36009;SDS011;22076;52.182;5.404;2022-12-07T03:44:55;18.92;;;3.10;;
36009;SDS011;22076;52.182;5.404;2022-12-07T03:47:24;7.40;;;2.58;;
36009;SDS011;22076;52.182;5.404;2022-12-07T03:49:57;5.82;;;2.45;;
36009;SDS011;22076;52.182;5.404;2022-12-07T03:52:26;12.45;;;2.85;;
36009;SDS011;22076;52.182;5.404;2022-12-07T03:54:56;7.05;;;2.38;;
36009;SDS011;22076;52.182;5.404;2022-12-07T03:57:26;3.58;;;1.80;;
36009;SDS011;22076;52.182;5.404;2022-12-07T03:59:54;4.97;;;2.05;;
36009;SDS011;22076;52.182;5.404;2022-12-07T04:02:22;6.13;;;2.10;;
36009;SDS011;22076;52.182;5.404;2022-12-07T04:04:50;4.47;;;2.03;;
36009;SDS011;22076;52.182;5.404;2022-12-07T04:07:16;9.07;;;2.28;;
36009;SDS011;22076;52.182;5.404;2022-12-07T04:09:43;6.07;;;2.08;;
36009;SDS011;22076;52.182;5.404;2022-12-07T04:12:09;8.70;;;2.72;;
36009;SDS011;22076;52.182;5.404;2022-12-07T04:14:36;9.20;;;2.35;;
36009;SDS011;22076;52.182;5.404;2022-12-07T04:17:02;3.30;;;1.90;;
36009;SDS011;22076;52.182;5.404;2022-12-07T04:19:31;4.25;;;1.83;;
36009;SDS011;22076;52.182;5.404;2022-12-07T04:21:59;5.95;;;2.55;;
36009;SDS011;22076;52.182;5.404;2022-12-07T04:24:27;9.80;;;2.28;;
36009;SDS011;22076;52.182;5.404;2022-12-07T04:26:54;4.72;;;2.08;;
36009;SDS011;22076;52.182;5.404;2022-12-07T04:29:21;5.30;;;2.53;;
36009;SDS011;22076;52.182;5.404;2022-12-07T04:31:48;5.65;;;2.35;;
36009;SDS011;22076;52.182;5.404;2022-12-07T04:34:14;6.63;;;2.55;;
36009;SDS011;22076;52.182;5.404;2022-12-07T04:36:43;14.38;;;3.00;;
36009;SDS011;22076;52.182;5.404;2022-12-07T04:39:14;9.75;;;2.55;;
36009;SDS011;22076;52.182;5.404;2022-12-07T04:41:44;4.65;;;2.28;;
36009;SDS011;22076;52.182;5.404;2022-12-07T04:44:11;5.18;;;1.60;;
36009;SDS011;22076;52.182;5.404;2022-12-07T04:46:39;6.00;;;1.85;;
36009;SDS011;22076;52.182;5.404;2022-12-07T04:49:06;7.75;;;1.90;;
36009;SDS011;22076;52.182;5.404;2022-12-07T04:51:33;6.70;;;2.15;;
36009;SDS011;22076;52.182;5.404;2022-12-07T04:54:01;7.22;;;1.55;;
36009;SDS011;22076;52.182;5.404;2022-12-07T04:56:27;14.15;;;2.15;;
36009;SDS011;22076;52.182;5.404;2022-12-07T04:58:54;5.07;;;2.10;;
36009;SDS011;22076;52.182;5.404;2022-12-07T05:01:21;4.95;;;2.20;;
36009;SDS011;22076;52.182;5.404;2022-12-07T05:03:49;9.13;;;2.28;;
36009;SDS011;22076;52.182;5.404;2022-12-07T05:06:16;7.18;;;1.73;;
36009;SDS011;22076;52.182;5.404;2022-12-07T05:08:42;8.30;;;2.10;;
36009;SDS011;22076;52.182;5.404;2022-12-07T05:11:11;4.75;;;1.55;;
36009;SDS011;22076;52.182;5.404;2022-12-07T05:13:59;5.13;;;1.45;;
36009;SDS011;22076;52.182;5.404;2022-12-07T05:16:25;4.43;;;1.25;;
36009;SDS011;22076;52.182;5.404;2022-12-07T05:18:52;11.52;;;2.00;;
36009;SDS011;22076;52.182;5.404;2022-12-07T05:21:18;6.38;;;1.30;;
36009;SDS011;22076;52.182;5.404;2022-12-07T05:23:45;5.88;;;1.42;;
36009;SDS011;22076;52.182;5.404;2022-12-07T05:26:13;11.02;;;1.92;;
36009;SDS011;22076;52.182;5.404;2022-12-07T05:28:39;7.43;;;2.45;;
36009;SDS011;22076;52.182;5.404;2022-12-07T05:31:06;3.75;;;1.83;;
36009;SDS011;22076;52.182;5.404;2022-12-07T05:33:33;6.22;;;1.52;;
36009;SDS011;22076;52.182;5.404;2022-12-07T05:35:59;6.63;;;1.63;;
36009;SDS011;22076;52.182;5.404;2022-12-07T05:38:30;5.85;;;1.60;;
36009;SDS011;22076;52.182;5.404;2022-12-07T05:40:59;5.07;;;1.60;;
36009;SDS011;22076;52.182;5.404;2022-12-07T05:43:27;4.78;;;1.40;;
36009;SDS011;22076;52.182;5.404;2022-12-07T05:45:54;5.70;;;1.38;;
36009;SDS011;22076;52.182;5.404;2022-12-07T05:48:21;3.85;;;1.02;;
36009;SDS011;22076;52.182;5.404;2022-12-07T05:50:47;10.95;;;1.63;;
36009;SDS011;22076;52.182;5.404;2022-12-07T05:53:14;4.63;;;1.15;;
36009;SDS011;22076;52.182;5.404;2022-12-07T05:55:41;1.77;;;1.02;;
36009;SDS011;22076;52.182;5.404;2022-12-07T05:58:08;6.35;;;1.15;;
36009;SDS011;22076;52.182;5.404;2022-12-07T06:00:55;7.05;;;1.30;;
36009;SDS011;22076;52.182;5.404;2022-12-07T06:03:22;7.05;;;1.30;;
36009;SDS011;22076;52.182;5.404;2022-12-07T06:05:49;6.20;;;1.40;;
36009;SDS011;22076;52.182;5.404;2022-12-07T06:08:15;5.72;;;0.90;;
36009;SDS011;22076;52.182;5.404;2022-12-07T06:10:42;10.32;;;2.33;;
36009;SDS011;22076;52.182;5.404;2022-12-07T06:13:08;6.65;;;2.13;;
36009;SDS011;22076;52.182;5.404;2022-12-07T06:15:35;2.55;;;1.15;;
36009;SDS011;22076;52.182;5.404;2022-12-07T06:18:03;6.00;;;1.50;;
36009;SDS011;22076;52.182;5.404;2022-12-07T06:20:29;3.88;;;1.35;;
36009;SDS011;22076;52.182;5.404;2022-12-07T06:22:56;7.05;;;1.30;;
36009;SDS011;22076;52.182;5.404;2022-12-07T06:25:23;4.57;;;1.80;;
36009;SDS011;22076;52.182;5.404;2022-12-07T06:27:49;3.15;;;1.23;;
36009;SDS011;22076;52.182;5.404;2022-12-07T06:30:16;4.10;;;1.00;;
36009;SDS011;22076;52.182;5.404;2022-12-07T06:32:42;4.53;;;1.20;;
36009;SDS011;22076;52.182;5.404;2022-12-07T06:35:10;5.65;;;1.60;;
36009;SDS011;22076;52.182;5.404;2022-12-07T06:37:37;7.70;;;1.92;;
36009;SDS011;22076;52.182;5.404;2022-12-07T06:40:04;6.78;;;1.60;;
36009;SDS011;22076;52.182;5.404;2022-12-07T06:42:39;7.10;;;1.73;;
36009;SDS011;22076;52.182;5.404;2022-12-07T06:45:06;3.70;;;1.77;;
36009;SDS011;22076;52.182;5.404;2022-12-07T06:47:33;3.97;;;1.30;;
36009;SDS011;22076;52.182;5.404;2022-12-07T06:49:59;6.53;;;1.83;;
36009;SDS011;22076;52.182;5.404;2022-12-07T06:52:27;1.73;;;1.05;;
36009;SDS011;22076;52.182;5.404;2022-12-07T06:54:54;10.70;;;1.40;;
36009;SDS011;22076;52.182;5.404;2022-12-07T06:57:20;5.50;;;1.45;;
36009;SDS011;22076;52.182;5.404;2022-12-07T06:59:47;3.92;;;1.63;;
36009;SDS011;22076;52.182;5.404;2022-12-07T07:02:14;9.10;;;1.95;;
36009;SDS011;22076;52.182;5.404;2022-12-07T07:04:40;7.22;;;2.30;;
36009;SDS011;22076;52.182;5.404;2022-12-07T07:07:07;8.35;;;2.08;;
36009;SDS011;22076;52.182;5.404;2022-12-07T07:09:35;5.60;;;1.58;;
36009;SDS011;22076;52.182;5.404;2022-12-07T07:12:01;11.80;;;2.05;;
36009;SDS011;22076;52.182;5.404;2022-12-07T07:14:28;5.72;;;1.92;;
36009;SDS011;22076;52.182;5.404;2022-12-07T07:16:55;5.53;;;1.92;;
36009;SDS011;22076;52.182;5.404;2022-12-07T07:19:21;10.07;;;2.13;;
36009;SDS011;22076;52.182;5.404;2022-12-07T07:21:50;5.72;;;2.25;;
36009;SDS011;22076;52.182;5.404;2022-12-07T07:24:16;12.73;;;2.85;;
36009;SDS011;22076;52.182;5.404;2022-12-07T07:26:44;13.10;;;2.88;;
36009;SDS011;22076;52.182;5.404;2022-12-07T07:29:11;5.55;;;2.03;;
36009;SDS011;22076;52.182;5.404;2022-12-07T07:31:38;4.72;;;1.98;;
36009;SDS011;22076;52.182;5.404;2022-12-07T07:34:04;8.52;;;2.47;;
36009;SDS011;22076;52.182;5.404;2022-12-07T07:36:31;9.48;;;2.63;;
36009;SDS011;22076;52.182;5.404;2022-12-07T07:38:58;12.52;;;2.50;;
36009;SDS011;22076;52.182;5.404;2022-12-07T07:41:25;8.07;;;2.20;;
36009;SDS011;22076;52.182;5.404;2022-12-07T07:43:52;7.57;;;2.38;;
36009;SDS011;22076;52.182;5.404;2022-12-07T07:46:19;8.00;;;2.42;;
36009;SDS011;22076;52.182;5.404;2022-12-07T07:48:47;8.80;;;2.15;;
36009;SDS011;22076;52.182;5.404;2022-12-07T07:51:13;7.13;;;2.25;;
36009;SDS011;22076;52.182;5.404;2022-12-07T07:53:40;7.18;;;2.05;;
36009;SDS011;22076;52.182;5.404;2022-12-07T07:56:07;3.15;;;1.83;;
36009;SDS011;22076;52.182;5.404;2022-12-07T07:58:33;7.18;;;1.92;;
36009;SDS011;22076;52.182;5.404;2022-12-07T08:01:15;3.20;;;2.10;;
36009;SDS011;22076;52.182;5.404;2022-12-07T08:03:41;6.38;;;2.63;;
36009;SDS011;22076;52.182;5.404;2022-12-07T08:06:08;4.78;;;2.38;;
36009;SDS011;22076;52.182;5.404;2022-12-07T08:08:35;11.15;;;2.80;;
36009;SDS011;22076;52.182;5.404;2022-12-07T08:13:33;7.90;;;2.67;;
36009;SDS011;22076;52.182;5.404;2022-12-07T08:16:02;8.40;;;2.65;;
36009;SDS011;22076;52.182;5.404;2022-12-07T08:18:31;10.43;;;2.45;;
36009;SDS011;22076;52.182;5.404;2022-12-07T08:20:59;6.43;;;2.60;;
36009;SDS011;22076;52.182;5.404;2022-12-07T08:23:26;9.80;;;2.83;;
36009;SDS011;22076;52.182;5.404;2022-12-07T08:25:53;4.93;;;1.83;;
36009;SDS011;22076;52.182;5.404;2022-12-07T08:28:19;6.28;;;2.78;;
36009;SDS011;22076;52.182;5.404;2022-12-07T08:30:46;8.75;;;2.05;;
36009;SDS011;22076;52.182;5.404;2022-12-07T08:33:13;3.60;;;1.83;;
36009;SDS011;22076;52.182;5.404;2022-12-07T08:35:41;4.53;;;1.90;;
36009;SDS011;22076;52.182;5.404;2022-12-07T08:38:07;5.22;;;2.00;;
36009;SDS011;22076;52.182;5.404;2022-12-07T08:40:34;8.70;;;2.53;;
36009;SDS011;22076;52.182;5.404;2022-12-07T08:43:01;11.32;;;2.45;;
36009;SDS011;22076;52.182;5.404;2022-12-07T08:45:28;8.50;;;2.40;;
36009;SDS011;22076;52.182;5.404;2022-12-07T08:47:59;10.77;;;2.33;;
36009;SDS011;22076;52.182;5.404;2022-12-07T08:50:29;2.63;;;1.35;;
36009;SDS011;22076;52.182;5.404;2022-12-07T08:52:57;11.10;;;3.58;;
36009;SDS011;22076;52.182;5.404;2022-12-07T08:55:24;9.77;;;2.67;;
36009;SDS011;22076;52.182;5.404;2022-12-07T08:57:52;6.65;;;1.80;;
36009;SDS011;22076;52.182;5.404;2022-12-07T09:00:19;8.93;;;2.42;;
36009;SDS011;22076;52.182;5.404;2022-12-07T09:02:48;7.32;;;1.70;;
36009;SDS011;22076;52.182;5.404;2022-12-07T09:05:14;6.80;;;1.92;;
36009;SDS011;22076;52.182;5.404;2022-12-07T09:07:41;10.13;;;2.10;;
36009;SDS011;22076;52.182;5.404;2022-12-07T09:10:10;2.53;;;1.35;;
36009;SDS011;22076;52.182;5.404;2022-12-07T09:12:36;13.20;;;2.60;;
36009;SDS011;22076;52.182;5.404;2022-12-07T09:15:04;6.43;;;1.85;;
36009;SDS011;22076;52.182;5.404;2022-12-07T09:17:32;10.18;;;2.00;;
36009;SDS011;22076;52.182;5.404;2022-12-07T09:19:59;4.60;;;1.50;;
36009;SDS011;22076;52.182;5.404;2022-12-07T09:22:28;5.88;;;1.70;;
36009;SDS011;22076;52.182;5.404;2022-12-07T09:24:55;9.80;;;2.58;;
36009;SDS011;22076;52.182;5.404;2022-12-07T09:27:23;7.88;;;2.05;;
36009;SDS011;22076;52.182;5.404;2022-12-07T09:29:49;8.60;;;2.40;;
36009;SDS011;22076;52.182;5.404;2022-12-07T09:32:16;3.72;;;1.77;;
36009;SDS011;22076;52.182;5.404;2022-12-07T09:34:42;8.35;;;2.38;;
36009;SDS011;22076;52.182;5.404;2022-12-07T09:37:09;6.90;;;1.88;;
36009;SDS011;22076;52.182;5.404;2022-12-07T09:39:37;8.13;;;1.88;;
36009;SDS011;22076;52.182;5.404;2022-12-07T09:42:04;12.93;;;2.72;;
36009;SDS011;22076;52.182;5.404;2022-12-07T09:44:33;8.25;;;2.42;;
36009;SDS011;22076;52.182;5.404;2022-12-07T09:47:02;14.15;;;3.20;;
36009;SDS011;22076;52.182;5.404;2022-12-07T09:49:29;7.10;;;2.10;;
36009;SDS011;22076;52.182;5.404;2022-12-07T09:52:01;5.80;;;2.22;;
36009;SDS011;22076;52.182;5.404;2022-12-07T09:54:29;5.25;;;1.75;;
36009;SDS011;22076;52.182;5.404;2022-12-07T09:56:56;3.80;;;1.60;;
36009;SDS011;22076;52.182;5.404;2022-12-07T09:59:23;9.57;;;2.25;;
36009;SDS011;22076;52.182;5.404;2022-12-07T10:01:51;3.47;;;1.35;;
36009;SDS011;22076;52.182;5.404;2022-12-07T10:04:18;10.35;;;2.80;;
36009;SDS011;22076;52.182;5.404;2022-12-07T10:06:46;9.15;;;2.25;;
36009;SDS011;22076;52.182;5.404;2022-12-07T10:09:13;5.25;;;1.90;;
36009;SDS011;22076;52.182;5.404;2022-12-07T10:12:01;10.45;;;2.30;;
36009;SDS011;22076;52.182;5.404;2022-12-07T10:14:30;3.65;;;1.83;;
36009;SDS011;22076;52.182;5.404;2022-12-07T10:17:02;10.93;;;2.30;;
36009;SDS011;22076;52.182;5.404;2022-12-07T10:19:30;6.78;;;2.00;;
36009;SDS011;22076;52.182;5.404;2022-12-07T10:24:43;6.30;;;1.83;;
36009;SDS011;22076;52.182;5.404;2022-12-07T10:27:17;4.55;;;1.42;;
36009;SDS011;22076;52.182;5.404;2022-12-07T10:29:50;5.35;;;2.00;;
36009;SDS011;22076;52.182;5.404;2022-12-07T10:32:33;6.45;;;2.47;;
36009;SDS011;22076;52.182;5.404;2022-12-07T10:35:20;5.10;;;1.83;;
36009;SDS011;22076;52.182;5.404;2022-12-07T10:37:51;5.22;;;1.58;;
36009;SDS011;22076;52.182;5.404;2022-12-07T10:40:26;7.90;;;1.70;;
36009;SDS011;22076;52.182;5.404;2022-12-07T10:43:02;5.90;;;1.63;;
36009;SDS011;22076;52.182;5.404;2022-12-07T10:45:30;5.90;;;1.65;;
36009;SDS011;22076;52.182;5.404;2022-12-07T10:48:07;5.28;;;1.73;;
36009;SDS011;22076;52.182;5.404;2022-12-07T10:50:44;7.45;;;1.77;;
36009;SDS011;22076;52.182;5.404;2022-12-07T10:53:38;7.43;;;2.15;;
36009;SDS011;22076;52.182;5.404;2022-12-07T10:56:15;6.63;;;1.88;;
36009;SDS011;22076;52.182;5.404;2022-12-07T10:58:53;4.43;;;1.20;;
36009;SDS011;22076;52.182;5.404;2022-12-07T11:01:27;4.15;;;1.63;;
36009;SDS011;22076;52.182;5.404;2022-12-07T11:04:07;12.82;;;2.60;;
36009;SDS011;22076;52.182;5.404;2022-12-07T11:06:42;5.20;;;1.60;;
36009;SDS011;22076;52.182;5.404;2022-12-07T11:12:08;7.30;;;1.60;;
36009;SDS011;22076;52.182;5.404;2022-12-07T11:14:40;6.95;;;2.03;;
36009;SDS011;22076;52.182;5.404;2022-12-07T11:17:12;9.70;;;2.30;;
36009;SDS011;22076;52.182;5.404;2022-12-07T11:19:48;4.83;;;1.87;;
36009;SDS011;22076;52.182;5.404;2022-12-07T11:22:22;8.00;;;1.70;;
36009;SDS011;22076;52.182;5.404;2022-12-07T11:24:54;8.43;;;2.15;;
36009;SDS011;22076;52.182;5.404;2022-12-07T11:27:26;6.47;;;1.65;;
36009;SDS011;22076;52.182;5.404;2022-12-07T11:32:58;7.07;;;2.08;;
36009;SDS011;22076;52.182;5.404;2022-12-07T11:35:44;5.07;;;1.77;;
36009;SDS011;22076;52.182;5.404;2022-12-07T11:38:14;5.97;;;1.90;;
36009;SDS011;22076;52.182;5.404;2022-12-07T11:40:43;7.35;;;1.52;;
36009;SDS011;22076;52.182;5.404;2022-12-07T11:43:14;9.35;;;1.80;;
36009;SDS011;22076;52.182;5.404;2022-12-07T11:45:44;11.98;;;2.10;;
36009;SDS011;22076;52.182;5.404;2022-12-07T11:48:15;5.70;;;2.00;;
36009;SDS011;22076;52.182;5.404;2022-12-07T11:50:47;10.15;;;2.30;;
36009;SDS011;22076;52.182;5.404;2022-12-07T11:53:17;6.97;;;2.15;;
36009;SDS011;22076;52.182;5.404;2022-12-07T11:55:47;7.20;;;1.90;;
36009;SDS011;22076;52.182;5.404;2022-12-07T11:58:29;4.78;;;1.90;;
36009;SDS011;22076;52.182;5.404;2022-12-07T12:01:07;7.13;;;1.98;;
36009;SDS011;22076;52.182;5.404;2022-12-07T12:03:42;8.82;;;2.22;;
36009;SDS011;22076;52.182;5.404;2022-12-07T12:06:12;4.68;;;1.30;;
36009;SDS011;22076;52.182;5.404;2022-12-07T12:08:39;5.07;;;1.50;;
36009;SDS011;22076;52.182;5.404;2022-12-07T12:11:13;6.88;;;2.05;;
36009;SDS011;22076;52.182;5.404;2022-12-07T12:14:00;4.18;;;2.10;;
36009;SDS011;22076;52.182;5.404;2022-12-07T12:16:50;3.40;;;1.52;;
36009;SDS011;22076;52.182;5.404;2022-12-07T12:19:26;7.15;;;1.90;;
36009;SDS011;22076;52.182;5.404;2022-12-07T12:22:00;3.72;;;1.40;;
36009;SDS011;22076;52.182;5.404;2022-12-07T12:24:31;4.78;;;1.23;;
36009;SDS011;22076;52.182;5.404;2022-12-07T12:27:03;10.23;;;2.15;;
36009;SDS011;22076;52.182;5.404;2022-12-07T12:29:32;5.53;;;1.52;;
36009;SDS011;22076;52.182;5.404;2022-12-07T12:32:16;7.85;;;1.40;;
36009;SDS011;22076;52.182;5.404;2022-12-07T12:49:14;4.32;;;1.25;;
36009;SDS011;22076;52.182;5.404;2022-12-07T12:52:01;6.25;;;1.30;;
36009;SDS011;22076;52.182;5.404;2022-12-07T12:55:20;5.72;;;1.40;;
36009;SDS011;22076;52.182;5.404;2022-12-07T13:00:49;5.65;;;1.42;;
36009;SDS011;22076;52.182;5.404;2022-12-07T13:03:53;3.75;;;0.80;;
36009;SDS011;22076;52.182;5.404;2022-12-07T13:06:31;3.30;;;0.80;;
36009;SDS011;22076;52.182;5.404;2022-12-07T13:09:02;3.38;;;1.00;;
36009;SDS011;22076;52.182;5.404;2022-12-07T13:11:31;4.75;;;1.10;;
36009;SDS011;22076;52.182;5.404;2022-12-07T13:17:08;1.85;;;0.70;;
36009;SDS011;22076;52.182;5.404;2022-12-07T13:22:39;5.15;;;0.80;;
36009;SDS011;22076;52.182;5.404;2022-12-07T13:25:08;2.45;;;0.55;;
36009;SDS011;22076;52.182;5.404;2022-12-07T13:27:39;3.28;;;0.90;;
36009;SDS011;22076;52.182;5.404;2022-12-07T13:30:09;1.60;;;0.70;;
36009;SDS011;22076;52.182;5.404;2022-12-07T13:32:40;3.53;;;0.80;;
36009;SDS011;22076;52.182;5.404;2022-12-07T13:37:59;1.75;;;0.70;;
36009;SDS011;22076;52.182;5.404;2022-12-07T13:40:28;4.55;;;1.08;;
36009;SDS011;22076;52.182;5.404;2022-12-07T13:42:59;3.72;;;1.15;;
36009;SDS011;22076;52.182;5.404;2022-12-07T13:45:27;4.95;;;1.65;;
36009;SDS011;22076;52.182;5.404;2022-12-07T13:48:18;5.03;;;1.38;;
36009;SDS011;22076;52.182;5.404;2022-12-07T13:50:53;2.17;;;1.20;;
36009;SDS011;22076;52.182;5.404;2022-12-07T13:53:20;4.78;;;1.52;;
36009;SDS011;22076;52.182;5.404;2022-12-07T13:55:47;5.13;;;1.33;;
36009;SDS011;22076;52.182;5.404;2022-12-07T13:58:15;5.32;;;1.20;;
36009;SDS011;22076;52.182;5.404;2022-12-07T14:00:43;2.80;;;0.93;;
36009;SDS011;22076;52.182;5.404;2022-12-07T14:03:30;4.65;;;1.10;;
36009;SDS011;22076;52.182;5.404;2022-12-07T14:06:05;2.38;;;1.70;;
36009;SDS011;22076;52.182;5.404;2022-12-07T14:08:47;6.18;;;1.75;;
36009;SDS011;22076;52.182;5.404;2022-12-07T14:11:16;5.05;;;1.70;;
36009;SDS011;22076;52.182;5.404;2022-12-07T14:13:49;5.53;;;1.55;;
36009;SDS011;22076;52.182;5.404;2022-12-07T14:16:22;5.32;;;1.50;;
36009;SDS011;22076;52.182;5.404;2022-12-07T14:18:51;2.60;;;1.02;;
36009;SDS011;22076;52.182;5.404;2022-12-07T14:21:19;6.00;;;2.05;;
36009;SDS011;22076;52.182;5.404;2022-12-07T14:26:38;4.95;;;2.10;;
36009;SDS011;22076;52.182;5.404;2022-12-07T14:29:20;5.82;;;1.70;;
36009;SDS011;22076;52.182;5.404;2022-12-07T14:31:48;5.40;;;1.70;;
36009;SDS011;22076;52.182;5.404;2022-12-07T14:34:15;4.07;;;1.05;;
36009;SDS011;22076;52.182;5.404;2022-12-07T14:36:41;4.85;;;1.20;;
36009;SDS011;22076;52.182;5.404;2022-12-07T14:39:08;4.47;;;0.93;;
36009;SDS011;22076;52.182;5.404;2022-12-07T14:41:34;7.10;;;1.85;;
36009;SDS011;22076;52.182;5.404;2022-12-07T14:44:16;8.63;;;2.30;;
36009;SDS011;22076;52.182;5.404;2022-12-07T14:46:45;4.30;;;2.05;;
36009;SDS011;22076;52.182;5.404;2022-12-07T14:49:12;9.73;;;2.13;;
36009;SDS011;22076;52.182;5.404;2022-12-07T14:51:39;7.88;;;1.80;;
36009;SDS011;22076;52.182;5.404;2022-12-07T14:54:12;5.80;;;1.50;;
36009;SDS011;22076;52.182;5.404;2022-12-07T14:56:41;6.57;;;2.05;;
36009;SDS011;22076;52.182;5.404;2022-12-07T14:59:09;8.63;;;2.35;;
36009;SDS011;22076;52.182;5.404;2022-12-07T15:01:42;5.57;;;2.33;;
36009;SDS011;22076;52.182;5.404;2022-12-07T15:04:11;9.93;;;2.17;;
36009;SDS011;22076;52.182;5.404;2022-12-07T15:06:38;2.55;;;1.40;;
36009;SDS011;22076;52.182;5.404;2022-12-07T15:09:05;5.55;;;1.52;;
36009;SDS011;22076;52.182;5.404;2022-12-07T15:11:31;2.47;;;1.08;;
36009;SDS011;22076;52.182;5.404;2022-12-07T15:13:58;8.07;;;1.92;;
36009;SDS011;22076;52.182;5.404;2022-12-07T15:16:41;4.45;;;1.70;;
36009;SDS011;22076;52.182;5.404;2022-12-07T15:19:11;3.22;;;1.10;;
36009;SDS011;22076;52.182;5.404;2022-12-07T15:21:40;3.55;;;1.52;;
36009;SDS011;22076;52.182;5.404;2022-12-07T15:24:07;5.15;;;1.17;;
36009;SDS011;22076;52.182;5.404;2022-12-07T15:26:35;2.92;;;1.38;;
36009;SDS011;22076;52.182;5.404;2022-12-07T15:29:02;2.42;;;1.50;;
36009;SDS011;22076;52.182;5.404;2022-12-07T15:31:28;4.45;;;1.75;;
36009;SDS011;22076;52.182;5.404;2022-12-07T15:33:55;3.20;;;1.75;;
36009;SDS011;22076;52.182;5.404;2022-12-07T15:36:24;2.60;;;1.27;;
36009;SDS011;22076;52.182;5.404;2022-12-07T15:38:52;3.15;;;1.15;;
36009;SDS011;22076;52.182;5.404;2022-12-07T15:41:19;2.92;;;1.27;;
36009;SDS011;22076;52.182;5.404;2022-12-07T15:43:47;3.58;;;1.50;;
36009;SDS011;22076;52.182;5.404;2022-12-07T15:46:32;5.40;;;1.90;;
36009;SDS011;22076;52.182;5.404;2022-12-07T15:48:59;5.20;;;2.10;;
36009;SDS011;22076;52.182;5.404;2022-12-07T15:51:28;9.93;;;4.60;;
36009;SDS011;22076;52.182;5.404;2022-12-07T15:53:54;6.00;;;3.25;;